Time;durP1;ratioP1;P1;durP2;ratioP2;P2;SDS_P1;SDS_P2;PMS_P1;PMS_P2;Temp;Humidity;BMP_temperature;BMP_pressure;BME280_temperature;BME280_humidity;BME280_pressure;Samples;Min_cycle;Max_cycle;Signal;HPM_P1;HPM_P2
2022/08/21 00:01:21;;;;;;;0.30;0.30;;;16.30;99.90;;;;;;5091689;27;20050;-80
2022/08/21 00:03:47;;;;;;;0.32;0.32;;;16.30;99.90;;;;;;5091961;27;20039;-80
2022/08/21 00:06:13;;;;;;;0.40;0.40;;;16.20;99.90;;;;;;5075674;27;20050;-80
2022/08/21 00:08:39;;;;;;;0.30;0.30;;;16.10;99.90;;;;;;5072214;27;20050;-80
2022/08/21 00:11:05;;;;;;;0.30;0.30;;;16.10;99.90;;;;;;5095955;27;20047;-80
2022/08/21 00:13:31;;;;;;;0.70;0.70;;;16.00;99.90;;;;;;5091716;27;20111;-80
2022/08/21 00:15:57;;;;;;;0.30;0.30;;;16.00;99.90;;;;;;5099498;27;20050;-80
2022/08/21 00:18:26;;;;;;;0.40;0.40;;;16.00;99.90;;;;;;5098954;27;20043;-80
2022/08/21 00:21:00;;;;;;;0.30;0.30;;;16.00;99.90;;;;;;5106388;27;20050;-80
2022/08/21 00:23:26;;;;;;;0.30;0.30;;;16.00;99.90;;;;;;5094556;27;20479;-80
2022/08/21 00:25:52;;;;;;;0.35;0.35;;;16.00;99.90;;;;;;5081630;27;20050;-81
2022/08/21 00:28:18;;;;;;;1.00;0.50;;;15.90;99.90;;;;;;5092218;27;20087;-81
2022/08/21 00:30:44;;;;;;;0.30;0.30;;;15.90;99.90;;;;;;5078127;27;20059;-80
2022/08/21 00:33:12;;;;;;;0.30;0.30;;;15.80;99.90;;;;;;5093409;27;20123;-80
2022/08/21 00:35:40;;;;;;;0.40;0.40;;;15.80;99.90;;;;;;5090876;27;20471;-81
2022/08/21 00:38:08;;;;;;;0.40;0.40;;;15.80;99.90;;;;;;5090726;27;20040;-80
2022/08/21 00:40:42;;;;;;;0.30;0.30;;;15.70;99.90;;;;;;5092767;27;20042;-80
2022/08/21 00:43:08;;;;;;;;;;;15.70;99.90;;;;;;5076198;27;20270;-80
2022/08/21 00:45:35;;;;;;;0.40;0.40;;;15.60;99.90;;;;;;5086751;27;19944;-80
2022/08/21 00:48:01;;;;;;;0.30;0.30;;;15.60;99.90;;;;;;5102256;27;20096;-80
2022/08/21 00:50:31;;;;;;;0.30;0.30;;;15.50;99.90;;;;;;5091555;27;20046;-81
2022/08/21 00:52:59;;;;;;;0.40;0.40;;;15.50;99.90;;;;;;5089884;27;20047;-81
2022/08/21 00:55:25;;;;;;;0.30;0.30;;;15.40;99.90;;;;;;5108782;27;20480;-80
2022/08/21 00:57:53;;;;;;;0.30;0.30;;;15.40;99.90;;;;;;5111198;27;20423;-81
2022/08/21 01:00:28;;;;;;;0.30;0.30;;;15.40;99.90;;;;;;5089621;27;20058;-81
2022/08/21 01:02:55;;;;;;;0.30;0.30;;;15.30;99.90;;;;;;5089865;28;20572;-81
2022/08/21 01:05:21;;;;;;;0.40;0.40;;;15.40;99.90;;;;;;5088179;28;20082;-81
2022/08/21 01:07:47;;;;;;;0.40;0.40;;;15.40;99.90;;;;;;5088813;27;20484;-81
2022/08/21 01:10:14;;;;;;;0.50;0.50;;;15.50;99.90;;;;;;5110875;27;20806;-80
2022/08/21 01:12:41;;;;;;;0.40;0.40;;;15.50;99.90;;;;;;5090562;27;20750;-81
2022/08/21 01:15:08;;;;;;;0.40;0.40;;;15.50;99.90;;;;;;5092166;27;20082;-81
2022/08/21 01:17:35;;;;;;;0.30;0.30;;;15.50;99.90;;;;;;5109416;27;20437;-80
2022/08/21 01:20:05;;;;;;;0.30;0.30;;;15.50;99.90;;;;;;5088615;27;20470;-80
2022/08/21 01:22:30;;;;;;;0.50;0.50;;;15.50;99.90;;;;;;5090831;27;20039;-80
2022/08/21 01:24:56;;;;;;;0.40;0.40;;;15.50;99.90;;;;;;5089264;27;20442;-80
2022/08/21 01:27:22;;;;;;;0.30;0.30;;;15.40;99.90;;;;;;5091663;27;20058;-80
2022/08/21 01:29:59;;;;;;;0.40;0.40;;;15.40;99.90;;;;;;5053053;28;20057;-80
2022/08/21 01:32:25;;;;;;;0.40;0.40;;;15.30;99.90;;;;;;5051540;28;20032;-80
2022/08/21 01:34:52;;;;;;;0.30;0.30;;;15.20;99.90;;;;;;5051844;28;20044;-81
2022/08/21 01:37:20;;;;;;;0.40;0.40;;;15.30;99.90;;;;;;5039917;28;20052;-80
2022/08/21 01:39:47;;;;;;;0.40;0.40;;;15.40;99.90;;;;;;5056299;28;20110;-81
2022/08/21 01:42:13;;;;;;;0.40;0.40;;;15.40;99.90;;;;;;5062465;28;20032;-81
2022/08/21 01:44:40;;;;;;;0.30;0.30;;;15.40;99.90;;;;;;5047928;28;20816;-80
2022/08/21 01:47:09;;;;;;;0.40;0.40;;;15.40;99.90;;;;;;5071270;28;20048;-81
2022/08/21 01:49:36;;;;;;;0.40;0.40;;;15.40;99.90;;;;;;5061620;28;20488;-81
2022/08/21 01:52:03;;;;;;;0.50;0.50;;;15.40;99.90;;;;;;5069823;28;20272;-80
2022/08/21 01:54:29;;;;;;;0.30;0.30;;;15.30;99.90;;;;;;5059695;28;20091;-81
2022/08/21 01:56:55;;;;;;;0.40;0.40;;;15.20;99.90;;;;;;5063409;28;20041;-81
2022/08/21 01:59:23;;;;;;;0.40;0.40;;;15.20;99.90;;;;;;5067187;28;20542;-81
2022/08/21 02:01:49;;;;;;;0.32;0.32;;;15.20;99.90;;;;;;5064744;28;20226;-81
2022/08/21 02:04:14;;;;;;;0.40;0.40;;;15.20;99.90;;;;;;5062630;28;20473;-80
2022/08/21 02:06:40;;;;;;;0.38;0.38;;;15.20;99.90;;;;;;5060822;28;20036;-81
2022/08/21 02:09:10;;;;;;;0.43;0.43;;;15.10;99.90;;;;;;5062895;28;20495;-81
2022/08/21 02:11:40;;;;;;;0.40;0.40;;;15.00;99.90;;;;;;5046213;28;20040;-81
2022/08/21 02:14:07;;;;;;;0.40;0.40;;;15.00;99.90;;;;;;5063252;28;20045;-81
2022/08/21 02:16:33;;;;;;;0.40;0.40;;;14.90;99.90;;;;;;5042971;28;20687;-81
2022/08/21 02:18:59;;;;;;;0.40;0.40;;;14.90;99.90;;;;;;5065148;28;20087;-81
2022/08/21 02:21:25;;;;;;;0.40;0.40;;;14.90;99.90;;;;;;5081580;28;20050;-81
2022/08/21 02:23:51;;;;;;;0.32;0.32;;;14.90;99.90;;;;;;5064514;28;20088;-81
2022/08/21 02:26:17;;;;;;;0.40;0.40;;;14.80;99.90;;;;;;5064611;28;20504;-81
2022/08/21 02:28:43;;;;;;;0.30;0.30;;;14.80;99.90;;;;;;5067758;28;20119;-81
2022/08/21 02:31:10;;;;;;;0.40;0.40;;;14.80;99.90;;;;;;5070303;28;20052;-80
2022/08/21 02:33:35;;;;;;;0.30;0.30;;;14.70;99.90;;;;;;5086153;28;20055;-80
2022/08/21 02:36:02;;;;;;;0.40;0.40;;;14.70;99.90;;;;;;5072092;28;20167;-80
2022/08/21 02:38:33;;;;;;;0.40;0.40;;;14.60;99.90;;;;;;5087297;28;20422;-80
2022/08/21 02:40:59;;;;;;;0.40;0.40;;;14.50;99.90;;;;;;5087551;28;20153;-80
2022/08/21 02:43:27;;;;;;;0.40;0.40;;;14.50;99.90;;;;;;5106230;28;20479;-80
2022/08/21 02:45:54;;;;;;;0.40;0.40;;;14.50;99.90;;;;;;5090299;27;20047;-81
2022/08/21 02:48:23;;;;;;;0.30;0.30;;;14.40;99.90;;;;;;5093600;27;20388;-81
2022/08/21 02:50:59;;;;;;;0.45;0.45;;;14.40;99.90;;;;;;5094024;27;20042;-81
2022/08/21 02:53:25;;;;;;;0.40;0.40;;;14.40;99.90;;;;;;5092879;27;20128;-81
2022/08/21 02:55:52;;;;;;;0.40;0.40;;;14.40;99.90;;;;;;5095088;27;20097;-80
2022/08/21 02:58:24;;;;;;;0.30;0.30;;;14.50;99.90;;;;;;5077242;27;20560;-81
2022/08/21 03:00:51;;;;;;;0.40;0.40;;;14.40;99.90;;;;;;5094971;27;20047;-80
2022/08/21 03:03:17;;;;;;;0.30;0.30;;;14.40;99.90;;;;;;5076423;27;20047;-81
2022/08/21 03:05:44;;;;;;;0.60;0.60;;;14.40;99.90;;;;;;5112582;27;20561;-81
2022/08/21 03:08:11;;;;;;;0.38;0.38;;;14.30;99.90;;;;;;5110563;27;20195;-80
2022/08/21 03:10:41;;;;;;;0.40;0.40;;;14.20;99.90;;;;;;5112903;27;20240;-81
2022/08/21 03:13:07;;;;;;;0.30;0.30;;;14.10;99.90;;;;;;5111139;27;20382;-81
2022/08/21 03:15:34;;;;;;;0.40;0.40;;;14.10;99.90;;;;;;5112091;27;20051;-80
2022/08/21 03:18:00;;;;;;;0.35;0.35;;;14.10;99.90;;;;;;5093141;27;20047;-81
2022/08/21 03:20:28;;;;;;;0.38;0.38;;;14.20;99.90;;;;;;5093256;27;20515;-80
2022/08/21 03:22:54;;;;;;;0.50;0.50;;;14.20;99.90;;;;;;5093388;27;20059;-81
2022/08/21 03:25:24;;;;;;;0.30;0.30;;;14.20;99.90;;;;;;5093487;27;20047;-80
2022/08/21 03:27:51;;;;;;;0.40;0.40;;;14.10;99.90;;;;;;5110830;27;20063;-80
2022/08/21 03:30:19;;;;;;;0.40;0.40;;;14.20;99.90;;;;;;5091958;27;20152;-80
2022/08/21 03:32:46;;;;;;;0.43;0.40;;;14.20;99.90;;;;;;5089638;27;20530;-81
2022/08/21 03:35:13;;;;;;;0.40;0.40;;;14.10;99.90;;;;;;5092633;27;20070;-81
2022/08/21 03:37:40;;;;;;;0.30;0.30;;;14.20;99.90;;;;;;5088987;27;20104;-80
2022/08/21 03:40:07;;;;;;;0.30;0.30;;;14.10;99.90;;;;;;5094555;27;20084;-81
2022/08/21 03:42:34;;;;;;;0.40;0.40;;;14.10;99.90;;;;;;5089452;27;20059;-80
2022/08/21 03:45:01;;;;;;;0.40;0.40;;;14.10;99.90;;;;;;5075052;27;20055;-81
2022/08/21 03:47:26;;;;;;;0.30;0.30;;;14.10;99.90;;;;;;5088647;27;20100;-81
2022/08/21 03:49:52;;;;;;;0.40;0.40;;;14.00;99.90;;;;;;5076325;27;20193;-80
2022/08/21 03:52:18;;;;;;;0.32;0.32;;;14.00;99.90;;;;;;5075201;27;20173;-81
2022/08/21 03:54:45;;;;;;;0.40;0.40;;;13.90;99.90;;;;;;5108386;27;20042;-80
2022/08/21 03:57:11;;;;;;;0.40;0.40;;;13.90;99.90;;;;;;5093069;27;20053;-81
2022/08/21 03:59:55;;;;;;;0.40;0.40;;;13.90;99.90;;;;;;5086417;27;20046;-80
2022/08/21 04:02:21;;;;;;;0.40;0.40;;;13.80;99.90;;;;;;5090716;27;20050;-80
2022/08/21 04:04:46;;;;;;;0.40;0.40;;;13.80;99.90;;;;;;5073446;27;20047;-80
2022/08/21 04:07:12;;;;;;;0.40;0.40;;;13.80;99.90;;;;;;5088630;27;20087;-81
2022/08/21 04:09:38;;;;;;;0.40;0.40;;;13.90;99.90;;;;;;5109748;27;20043;-81
2022/08/21 04:12:05;;;;;;;0.40;0.40;;;13.90;99.90;;;;;;5110390;27;20500;-81
2022/08/21 04:14:31;;;;;;;0.40;0.40;;;14.00;99.90;;;;;;5089828;27;20039;-81
2022/08/21 04:16:57;;;;;;;0.40;0.40;;;14.00;99.90;;;;;;5110943;27;20445;-81
2022/08/21 04:19:23;;;;;;;0.40;0.40;;;14.00;99.90;;;;;;5092931;27;20047;-81
2022/08/21 04:21:49;;;;;;;0.40;0.40;;;14.00;99.90;;;;;;5089735;27;20050;-81
2022/08/21 04:24:15;;;;;;;0.40;0.40;;;14.00;99.90;;;;;;5091599;27;20368;-80
2022/08/21 04:26:41;;;;;;;0.40;0.40;;;13.90;99.90;;;;;;5087402;27;20597;-82
2022/08/21 04:29:06;;;;;;;0.40;0.40;;;13.90;99.90;;;;;;5092349;27;20120;-82
2022/08/21 04:31:34;;;;;;;0.40;0.40;;;13.90;99.90;;;;;;5088750;27;20118;-81
2022/08/21 04:34:00;;;;;;;0.50;0.50;;;13.90;99.90;;;;;;5094518;27;20083;-81
2022/08/21 04:36:25;;;;;;;0.40;0.40;;;13.90;99.90;;;;;;5108182;27;20126;-81
2022/08/21 04:38:51;;;;;;;0.40;0.40;;;13.90;99.90;;;;;;5092317;27;20054;-81
2022/08/21 04:41:17;;;;;;;0.40;0.40;;;13.90;99.90;;;;;;5093092;27;20039;-82
2022/08/21 04:43:43;;;;;;;0.50;0.50;;;13.90;99.90;;;;;;5093138;27;20051;-82
2022/08/21 04:46:09;;;;;;;0.50;0.50;;;13.90;99.90;;;;;;5091338;27;20035;-82
2022/08/21 04:48:34;;;;;;;0.40;0.40;;;13.90;99.90;;;;;;5074511;27;20070;-82
2022/08/21 04:51:15;;;;;;;0.40;0.40;;;13.90;99.90;;;;;;5089682;27;20064;-82
2022/08/21 04:53:51;;;;;;;0.40;0.40;;;13.90;99.90;;;;;;5089476;27;20046;-82
2022/08/21 04:56:23;;;;;;;0.40;0.40;;;13.90;99.90;;;;;;5095358;27;20054;-82
2022/08/21 04:58:52;;;;;;;0.40;0.40;;;13.90;99.90;;;;;;5109094;27;20954;-82
2022/08/21 05:01:21;;;;;;;1.15;0.70;;;14.00;99.90;;;;;;5109009;27;20465;-81
2022/08/21 05:03:50;;;;;;;0.40;0.40;;;14.20;99.90;;;;;;5089941;27;20051;-81
2022/08/21 05:06:17;;;;;;;0.40;0.40;;;14.40;99.90;;;;;;5091068;28;20066;-81
2022/08/21 05:08:46;;;;;;;0.40;0.40;;;15.20;99.90;;;;;;5090633;27;20043;-81
2022/08/21 05:11:13;;;;;;;0.40;0.40;;;16.00;99.90;;;;;;5089865;27;20769;-81
2022/08/21 05:13:41;;;;;;;0.30;0.30;;;16.60;99.90;;;;;;5074001;27;20070;-82
2022/08/21 05:16:07;;;;;;;0.40;0.40;;;17.20;99.90;;;;;;5091234;27;20078;-82
2022/08/21 05:18:33;;;;;;;0.40;0.40;;;17.70;99.90;;;;;;5088836;28;20042;-83
2022/08/21 05:20:59;;;;;;;0.30;0.30;;;18.40;99.90;;;;;;5089726;27;20135;-81
2022/08/21 05:23:24;;;;;;;0.30;0.30;;;18.90;99.90;;;;;;5089709;27;20046;-82
2022/08/21 05:25:51;;;;;;;0.40;0.40;;;19.20;99.90;;;;;;5071507;27;20050;-83
2022/08/21 05:28:17;;;;;;;0.50;0.50;;;19.70;99.90;;;;;;5092994;27;20134;-82
2022/08/21 05:30:43;;;;;;;0.30;0.30;;;19.60;99.90;;;;;;5089894;27;20059;-82
2022/08/21 05:33:09;;;;;;;0.32;0.32;;;20.20;99.90;;;;;;5087918;27;20050;-82
2022/08/21 05:35:35;;;;;;;0.40;0.40;;;20.40;99.90;;;;;;5088673;27;20406;-81
2022/08/21 05:38:02;;;;;;;0.30;0.30;;;20.80;99.90;;;;;;5091056;27;20043;-82
2022/08/21 05:40:28;;;;;;;1.08;0.60;;;21.10;99.90;;;;;;5089536;27;20042;-81
2022/08/21 05:42:55;;;;;;;0.30;0.30;;;21.50;99.90;;;;;;5089857;27;20049;-82
2022/08/21 05:45:32;;;;;;;0.40;0.40;;;21.60;99.90;;;;;;5094648;27;20047;-82
2022/08/21 05:48:06;;;;;;;0.40;0.40;;;21.70;99.90;;;;;;5089978;28;20081;-82
2022/08/21 05:50:31;;;;;;;0.30;0.30;;;21.30;99.90;;;;;;5089682;28;20065;-82
2022/08/21 05:52:57;;;;;;;0.32;0.32;;;21.50;99.90;;;;;;5088930;28;20060;-81
2022/08/21 05:55:22;;;;;;;0.35;0.35;;;19.90;99.90;;;;;;5071775;28;20043;-82
2022/08/21 05:57:48;;;;;;;0.40;0.40;;;19.00;99.90;;;;;;5089043;28;20553;-82
2022/08/21 06:00:15;;;;;;;0.30;0.30;;;18.70;99.90;;;;;;5107268;28;20279;-81
2022/08/21 06:02:40;;;;;;;0.30;0.30;;;18.60;99.90;;;;;;5074310;28;20059;-82
2022/08/21 06:05:06;;;;;;;0.30;0.30;;;18.30;99.90;;;;;;5089833;28;20084;-81
2022/08/21 06:07:32;;;;;;;0.30;0.30;;;18.40;99.90;;;;;;5073307;28;20055;-80
2022/08/21 06:09:58;;;;;;;0.40;0.40;;;18.30;99.90;;;;;;5090688;28;20050;-81
2022/08/21 06:12:24;;;;;;;0.30;0.30;;;18.40;99.90;;;;;;5090289;28;20047;-82
2022/08/21 06:14:51;;;;;;;0.30;0.30;;;18.30;99.90;;;;;;5091812;28;20097;-80
2022/08/21 06:17:18;;;;;;;0.40;0.40;;;18.50;99.90;;;;;;5091182;28;20089;-80
2022/08/21 06:19:44;;;;;;;1.40;0.57;;;18.50;99.90;;;;;;5092679;28;20051;-81
2022/08/21 06:22:10;;;;;;;0.30;0.30;;;18.50;99.90;;;;;;5089554;28;20411;-82
2022/08/21 06:24:36;;;;;;;0.40;0.40;;;18.50;99.90;;;;;;5086012;28;20058;-81
2022/08/21 06:27:07;;;;;;;0.30;0.30;;;18.50;99.90;;;;;;5089957;28;20047;-81
2022/08/21 06:29:34;;;;;;;0.40;0.40;;;18.50;99.90;;;;;;5108465;28;20529;-81
2022/08/21 06:32:00;;;;;;;0.40;0.40;;;18.60;99.90;;;;;;5088767;28;20164;-82
2022/08/21 06:34:26;;;;;;;0.40;0.40;;;18.90;99.90;;;;;;5070009;28;20483;-81
2022/08/21 06:36:52;;;;;;;0.40;0.40;;;18.80;99.90;;;;;;5083960;28;20061;-82
2022/08/21 06:39:18;;;;;;;0.30;0.30;;;18.80;99.90;;;;;;5091184;28;20103;-82
2022/08/21 06:41:43;;;;;;;0.30;0.30;;;19.00;99.90;;;;;;5089928;28;20062;-82
2022/08/21 06:44:09;;;;;;;0.30;0.30;;;19.10;99.90;;;;;;5090989;28;20051;-80
2022/08/21 06:46:35;;;;;;;0.30;0.30;;;19.10;99.90;;;;;;5089660;28;20491;-80
2022/08/21 06:49:01;;;;;;;0.40;0.40;;;19.30;99.90;;;;;;5088042;28;20043;-81
2022/08/21 06:51:27;;;;;;;0.30;0.30;;;19.40;99.90;;;;;;5107551;28;20073;-81
2022/08/21 06:53:53;;;;;;;0.40;0.40;;;19.60;99.90;;;;;;5088426;28;20031;-81
2022/08/21 06:56:20;;;;;;;0.40;0.40;;;19.70;99.90;;;;;;5089190;28;20323;-81
2022/08/21 06:58:46;;;;;;;0.30;0.30;;;19.80;99.90;;;;;;5089198;28;20043;-81
2022/08/21 07:01:11;;;;;;;0.30;0.30;;;20.00;99.90;;;;;;5090177;28;20286;-80
2022/08/21 07:03:40;;;;;;;0.30;0.30;;;19.80;99.90;;;;;;5089952;27;20046;-81
2022/08/21 07:06:08;;;;;;;0.30;0.30;;;20.10;99.90;;;;;;5074624;27;20058;-80
2022/08/21 07:08:34;;;;;;;0.30;0.30;;;20.30;99.90;;;;;;5089802;27;20058;-81
2022/08/21 07:11:03;;;;;;;0.30;0.30;;;20.30;99.90;;;;;;5094191;27;20399;-81
2022/08/21 07:13:29;;;;;;;0.30;0.30;;;20.30;99.90;;;;;;5095062;27;20048;-81
2022/08/21 07:15:55;;;;;;;0.30;0.30;;;20.40;99.90;;;;;;5093680;27;20429;-81
2022/08/21 07:18:21;;;;;;;0.30;0.30;;;20.30;99.90;;;;;;5092645;27;20093;-81
2022/08/21 07:20:47;;;;;;;0.40;0.40;;;20.60;99.90;;;;;;5091454;27;20051;-82
2022/08/21 07:23:24;;;;;;;0.30;0.30;;;20.80;99.90;;;;;;5091925;27;20454;-82
2022/08/21 07:25:50;;;;;;;0.30;0.30;;;20.80;99.90;;;;;;5073520;27;20114;-81
2022/08/21 07:28:16;;;;;;;0.30;0.30;;;20.80;99.90;;;;;;5093082;27;20528;-81
2022/08/21 07:30:41;;;;;;;0.30;0.30;;;20.80;99.90;;;;;;5093051;27;20088;-81
2022/08/21 07:33:07;;;;;;;0.30;0.30;;;20.90;99.90;;;;;;5092302;27;20391;-80
2022/08/21 07:35:33;;;;;;;0.30;0.30;;;21.00;99.90;;;;;;5090607;27;20079;-81
2022/08/21 07:37:59;;;;;;;0.40;0.40;;;21.20;99.90;;;;;;5091371;27;20415;-81
2022/08/21 07:40:25;;;;;;;0.30;0.30;;;21.10;99.90;;;;;;5092282;27;20055;-80
2022/08/21 07:42:51;;;;;;;0.30;0.30;;;21.30;99.90;;;;;;5108487;27;20046;-81
2022/08/21 07:45:21;;;;;;;0.35;0.35;;;21.30;99.90;;;;;;5094446;27;20104;-81
2022/08/21 07:47:48;;;;;;;0.30;0.30;;;21.30;99.90;;;;;;5086818;27;20606;-80
2022/08/21 07:50:14;;;;;;;0.30;0.30;;;21.50;99.90;;;;;;5091080;27;20058;-81
2022/08/21 07:52:41;;;;;;;0.30;0.30;;;21.60;99.90;;;;;;5089823;27;20086;-82
2022/08/21 07:55:10;;;;;;;0.30;0.30;;;21.60;99.90;;;;;;5084758;27;20257;-81
2022/08/21 07:57:36;;;;;;;0.20;0.20;;;21.60;99.90;;;;;;5096823;27;20099;-83
2022/08/21 08:00:05;;;;;;;0.30;0.30;;;21.60;99.90;;;;;;5113606;27;20048;-81
2022/08/21 08:02:31;;;;;;;0.30;0.30;;;21.80;99.90;;;;;;5092212;27;20047;-80
2022/08/21 08:05:03;;;;;;;0.30;0.30;;;21.70;99.90;;;;;;5101264;27;20049;-83
2022/08/21 08:07:29;;;;;;;0.30;0.30;;;21.80;99.90;;;;;;5100595;27;20123;-81
2022/08/21 08:09:54;;;;;;;0.30;0.30;;;21.70;99.90;;;;;;5099689;27;20096;-81
2022/08/21 08:12:20;;;;;;;0.30;0.30;;;22.00;99.90;;;;;;5071348;27;20058;-81
2022/08/21 08:14:46;;;;;;;0.30;0.30;;;22.10;99.90;;;;;;5089638;27;20047;-82
2022/08/21 08:17:13;;;;;;;0.30;0.30;;;22.10;99.90;;;;;;5109295;27;20445;-82
2022/08/21 08:19:39;;;;;;;0.30;0.30;;;22.20;99.90;;;;;;5074501;27;20050;-83
2022/08/21 08:22:14;;;;;;;0.30;0.30;;;22.40;99.90;;;;;;5110622;27;20039;-81
2022/08/21 08:24:39;;;;;;;0.30;0.30;;;22.50;99.90;;;;;;5105548;27;20118;-81
2022/08/21 08:27:05;;;;;;;0.30;0.30;;;22.50;99.90;;;;;;5085404;27;20068;-80
2022/08/21 08:29:31;;;;;;;0.30;0.30;;;22.50;99.90;;;;;;5088522;27;20051;-84
2022/08/21 08:31:57;;;;;;;0.30;0.30;;;22.70;99.90;;;;;;5088354;27;20030;-83
2022/08/21 08:34:23;;;;;;;0.30;0.30;;;22.70;99.90;;;;;;5089873;27;20054;-83
2022/08/21 08:36:49;;;;;;;0.30;0.30;;;22.70;99.90;;;;;;5091186;27;20043;-80
2022/08/21 08:39:14;;;;;;;0.30;0.30;;;22.70;99.90;;;;;;5088741;27;20061;-82
2022/08/21 08:41:42;;;;;;;0.35;0.35;;;22.90;99.90;;;;;;5110019;27;20043;-80
2022/08/21 08:44:08;;;;;;;0.30;0.30;;;22.90;99.90;;;;;;5090149;27;20039;-83
2022/08/21 08:46:42;;;;;;;0.30;0.30;;;22.90;99.90;;;;;;5107596;27;20050;-81
2022/08/21 08:49:26;;;;;;;0.30;0.30;;;22.90;99.90;;;;;;5073750;27;20054;-81
2022/08/21 08:52:02;;;;;;;0.40;0.40;;;22.90;99.90;;;;;;5088451;27;20051;-81
2022/08/21 08:54:37;;;;;;;0.30;0.30;;;23.20;99.90;;;;;;5085491;27;20043;-81
2022/08/21 08:57:09;;;;;;;0.30;0.30;;;23.30;99.90;;;;;;5089614;27;20069;-82
2022/08/21 08:59:41;;;;;;;0.30;0.30;;;23.50;99.90;;;;;;5088267;27;20407;-81
2022/08/21 09:02:10;;;;;;;0.30;0.30;;;23.40;99.90;;;;;;5089663;27;20377;-81
2022/08/21 09:04:36;;;;;;;0.28;0.28;;;23.60;99.90;;;;;;5089464;27;20126;-83
2022/08/21 09:07:27;;;;;;;0.30;0.30;;;23.90;99.90;;;;;;5090205;27;20043;-81
2022/08/21 09:10:11;;;;;;;0.30;0.30;;;23.90;99.90;;;;;;5109241;27;20392;-84
2022/08/21 09:12:57;;;;;;;0.30;0.30;;;23.90;99.90;;;;;;5088723;27;20297;-85
2022/08/21 09:15:22;;;;;;;0.30;0.30;;;23.90;99.90;;;;;;5073700;27;20035;-82
2022/08/21 09:18:24;;;;;;;0.20;0.20;;;24.00;99.90;;;;;;5087322;27;20078;-82
2022/08/21 09:21:11;;;;;;;0.30;0.30;;;24.00;99.90;;;;;;5085666;27;20725;-82
2022/08/21 09:24:19;;;;;;;0.30;0.30;;;24.10;99.90;;;;;;5086796;27;20583;-80
2022/08/21 09:27:15;;;;;;;0.22;0.22;;;24.00;99.90;;;;;;5090151;27;20711;-80
2022/08/21 09:29:47;;;;;;;0.30;0.30;;;24.20;99.90;;;;;;5087816;27;20078;-82
2022/08/21 09:32:29;;;;;;;0.30;0.30;;;24.40;99.90;;;;;;5089094;27;20039;-81
2022/08/21 09:34:59;;;;;;;0.30;0.30;;;24.50;99.90;;;;;;5088652;27;20047;-81
2022/08/21 09:37:28;;;;;;;0.30;0.30;;;24.50;99.90;;;;;;5087593;27;20055;-85
2022/08/21 09:39:55;;;;;;;0.20;0.20;;;24.80;99.90;;;;;;5104852;27;20620;-83
2022/08/21 09:42:31;;;;;;;0.30;0.30;;;25.00;99.90;;;;;;5103247;27;20122;-82
2022/08/21 09:45:24;;;;;;;0.30;0.30;;;25.30;99.90;;;;;;5089763;27;20064;-82
2022/08/21 09:47:50;;;;;;;0.30;0.30;;;25.60;99.90;;;;;;5069450;27;20066;-82
2022/08/21 09:50:20;;;;;;;0.20;0.20;;;25.80;99.90;;;;;;5105737;27;20070;-82
2022/08/21 09:52:58;;;;;;;0.20;0.20;;;26.10;99.90;;;;;;5088290;28;20407;-84
2022/08/21 09:58:18;;;;;;;0.30;0.30;;;26.10;99.90;;;;;;5089752;28;20062;-82
2022/08/21 10:00:44;;;;;;;0.30;0.30;;;26.10;99.90;;;;;;5095377;28;20062;-84
2022/08/21 10:03:21;;;;;;;0.30;0.30;;;25.80;99.90;;;;;;5086005;28;20047;-83
2022/08/21 10:06:09;;;;;;;0.30;0.30;;;25.40;99.90;;;;;;5105901;28;20051;-83
2022/08/21 10:08:37;;;;;;;0.30;0.30;;;25.60;99.90;;;;;;5105100;28;20210;-83
2022/08/21 10:11:14;;;;;;;0.30;0.30;;;25.50;99.90;;;;;;5085579;28;20064;-82
2022/08/21 10:13:57;;;;;;;0.30;0.30;;;25.50;99.90;;;;;;5087881;28;20765;-85
2022/08/21 10:16:22;;;;;;;0.30;0.30;;;25.90;99.90;;;;;;5097891;28;20048;-82
2022/08/21 10:19:03;;;;;;;0.30;0.30;;;25.80;99.90;;;;;;5087123;28;20050;-84
2022/08/21 10:21:33;;;;;;;0.30;0.30;;;25.80;99.90;;;;;;5086852;28;20039;-81
2022/08/21 10:24:18;;;;;;;0.20;0.20;;;26.10;99.90;;;;;;5086851;28;20039;-83
2022/08/21 10:26:56;;;;;;;0.30;0.30;;;26.20;99.90;;;;;;5089692;28;20488;-83
2022/08/21 10:29:43;;;;;;;0.20;0.20;;;26.40;99.90;;;;;;5088226;28;20043;-80
2022/08/21 10:32:18;;;;;;;0.30;0.30;;;26.60;99.90;;;;;;5083787;28;20101;-82
2022/08/21 10:35:10;;;;;;;0.20;0.20;;;26.40;99.90;;;;;;5089903;28;21090;-81
2022/08/21 10:37:41;;;;;;;0.30;0.30;;;26.60;99.90;;;;;;5107588;27;20039;-81
2022/08/21 10:40:28;;;;;;;0.30;0.30;;;26.70;99.90;;;;;;5093781;27;20412;-80
2022/08/21 10:43:00;;;;;;;0.30;0.30;;;26.80;99.90;;;;;;5092534;27;20506;-82
2022/08/21 10:45:59;;;;;;;0.20;0.20;;;26.80;99.90;;;;;;5092290;27;20655;-84
2022/08/21 10:48:33;;;;;;;0.20;0.20;;;26.90;99.90;;;;;;5093801;27;20596;-84
2022/08/21 10:51:10;;;;;;;0.20;0.20;;;27.10;99.90;;;;;;5075528;27;20050;-82
2022/08/21 10:54:02;;;;;;;0.20;0.20;;;27.20;99.90;;;;;;5090135;27;20043;-82
2022/08/21 10:56:32;;;;;;;0.30;0.30;;;27.30;99.90;;;;;;5093762;27;20047;-81
2022/08/21 10:59:42;;;;;;;0.22;0.22;;;27.00;99.90;;;;;;5091487;27;20046;-86
2022/08/21 11:02:27;;;;;;;0.20;0.20;;;27.00;99.90;;;;;;5075787;27;20043;-84
2022/08/21 11:04:59;;;;;;;0.20;0.20;;;26.80;99.90;;;;;;5111588;27;20381;-83
2022/08/21 11:07:47;;;;;;;0.20;0.20;;;27.10;99.90;;;;;;5112315;27;20126;-83
2022/08/21 11:10:27;;;;;;;0.30;0.30;;;27.20;99.90;;;;;;5097692;27;20073;-85
2022/08/21 11:13:02;;;;;;;0.20;0.20;;;27.00;99.90;;;;;;5092867;27;20218;-83
2022/08/21 11:15:34;;;;;;;0.20;0.20;;;27.20;99.90;;;;;;5091502;27;20055;-83
2022/08/21 11:18:20;;;;;;;0.25;0.25;;;27.20;99.90;;;;;;5090202;27;20199;-83
2022/08/21 11:20:59;;;;;;;0.30;0.30;;;27.30;99.90;;;;;;5096028;27;20495;-82
2022/08/21 11:23:33;;;;;;;0.30;0.30;;;27.40;99.90;;;;;;5090084;27;20890;-80
2022/08/21 11:26:06;;;;;;;0.30;0.30;;;27.00;99.90;;;;;;5095618;27;20082;-82
2022/08/21 11:28:38;;;;;;;0.20;0.20;;;27.00;99.90;;;;;;5088315;27;20074;-84
2022/08/21 11:31:33;;;;;;;0.20;0.20;;;27.40;99.90;;;;;;5092458;27;20159;-82
2022/08/21 11:34:33;;;;;;;0.22;0.22;;;27.50;99.90;;;;;;5088564;27;20404;-85
2022/08/21 11:37:22;;;;;;;0.30;0.30;;;27.60;99.90;;;;;;5074272;27;20048;-83
2022/08/21 11:40:03;;;;;;;0.20;0.20;;;26.80;99.90;;;;;;5092930;27;20031;-83
2022/08/21 11:42:54;;;;;;;0.30;0.30;;;27.30;99.90;;;;;;5092280;27;20073;-82
2022/08/21 11:45:50;;;;;;;0.28;0.28;;;27.60;99.90;;;;;;5091316;27;20035;-83
2022/08/21 11:48:43;;;;;;;0.30;0.30;;;27.70;99.90;;;;;;5074242;27;20547;-84
2022/08/21 11:51:14;;;;;;;0.25;0.25;;;27.00;99.90;;;;;;5110657;27;20371;-82
2022/08/21 11:53:52;;;;;;;0.30;0.30;;;27.30;99.90;;;;;;5092111;27;20051;-84
2022/08/21 11:56:33;;;;;;;0.30;0.30;;;27.20;99.90;;;;;;5092145;27;20051;-83
2022/08/21 11:59:09;;;;;;;0.30;0.30;;;27.40;99.90;;;;;;5088827;27;20035;-82
2022/08/21 12:01:40;;;;;;;0.20;0.20;;;27.80;99.90;;;;;;5107633;27;20171;-82
2022/08/21 12:04:32;;;;;;;0.20;0.20;;;28.00;99.90;;;;;;5083367;27;20042;-83
2022/08/21 12:07:27;;;;;;;0.20;0.20;;;28.10;99.90;;;;;;5101621;27;20758;-84
2022/08/21 12:09:56;;;;;;;0.20;0.20;;;28.20;99.90;;;;;;5103523;27;20363;-82
2022/08/21 12:12:22;;;;;;;0.20;0.20;;;28.00;99.90;;;;;;5108545;27;20047;-83
2022/08/21 12:14:49;;;;;;;0.20;0.20;;;28.20;99.90;;;;;;5104574;27;20365;-82
2022/08/21 12:17:21;;;;;;;0.30;0.30;;;27.30;99.90;;;;;;5087845;27;20086;-83
2022/08/21 12:20:26;;;;;;;0.30;0.30;;;27.30;99.90;;;;;;5105027;27;20050;-82
2022/08/21 12:23:10;;;;;;;0.30;0.30;;;27.70;99.90;;;;;;5084849;27;20164;-81
2022/08/21 12:26:00;;;;;;;0.25;0.25;;;28.00;99.90;;;;;;5086758;27;20403;-81
2022/08/21 12:28:27;;;;;;;0.20;0.20;;;28.10;99.90;;;;;;5092026;27;20124;-83
2022/08/21 12:30:53;;;;;;;0.20;0.20;;;28.40;99.90;;;;;;5087844;28;20458;-83
2022/08/21 12:33:39;;;;;;;0.30;0.30;;;28.50;99.90;;;;;;5091638;27;20089;-83
2022/08/21 12:36:13;;;;;;;0.30;0.30;;;28.50;99.90;;;;;;5086568;28;20440;-82
2022/08/21 12:38:50;;;;;;;0.30;0.30;;;28.40;99.90;;;;;;5083075;28;20958;-82
2022/08/21 12:41:30;;;;;;;0.20;0.20;;;28.60;99.90;;;;;;5087954;28;20051;-81
2022/08/21 12:44:10;;;;;;;0.30;0.30;;;28.30;99.90;;;;;;5086053;28;20075;-82
2022/08/21 12:47:25;;;;;;;0.30;0.30;;;27.50;99.70;;;;;;5085996;28;20609;-83
2022/08/21 12:49:53;;;;;;;;;;;27.40;99.90;;;;;;5086751;28;20645;-87
2022/08/21 12:52:30;;;;;;;0.30;0.30;;;28.10;99.90;;;;;;5085970;28;20296;-83
2022/08/21 12:54:56;;;;;;;0.25;0.25;;;28.60;99.90;;;;;;5085200;28;20051;-80
2022/08/21 12:57:28;;;;;;;0.20;0.20;;;28.80;99.90;;;;;;5088968;28;20100;-82
2022/08/21 12:59:57;;;;;;;0.20;0.20;;;28.90;99.00;;;;;;5086450;28;20112;-84
2022/08/21 13:02:27;;;;;;;0.20;0.20;;;28.80;99.50;;;;;;5087757;28;20657;-82
2022/08/21 13:04:56;;;;;;;0.20;0.20;;;29.00;99.70;;;;;;5086043;28;20081;-81
2022/08/21 13:07:34;;;;;;;0.20;0.20;;;29.20;99.50;;;;;;5088054;28;20081;-82
2022/08/21 13:10:21;;;;;;;0.20;0.20;;;29.00;98.80;;;;;;5083615;28;20040;-83